KOSC/OSC METAR and TAF weather

Enter ICAO airport designator
Station Type Date Time Source
KOSC METAR 2019/04/25 11:55 UTC NOAA

KOSC 251155Z AUTO 24004KT 10SM CLR 05/05 A2985 RMK AO2 T00450045 10045 21020


Station Type Date Time Source
KOSC Decoded METAR 2019/04/25 11:55 UTC NOAA

Oscoda, Oscoda-Wurtsmith Airport, MI, United States (KOSC) 44-27N 083-22W
Apr 25, 2019 - 07:55 AM EDT / 2019.04.25 1155 UTC
Wind: from the WSW (240 degrees) at 5 MPH (4 KT):0
Visibility: 10 mile(s):0
Sky conditions: clear
Temperature: 40.1 F (4.5 C)
Dew Point: 40.1 F (4.5 C)
Relative Humidity: 100%
Pressure (altimeter): 29.85 in. Hg (1010 hPa)
ob: KOSC 251155Z AUTO 24004KT 10SM CLR 05/05 A2985 RMK AO2 T00450045 10045 21020
cycle: 12

Station Type Date Time Source
KOSC TAF UTC NOAA

Error!

Example: see airport list